createdAt,value
2023-03-02T00:03:02.942Z,74
2023-03-02T00:06:28.071Z,74
2023-03-02T00:09:53.240Z,74
2023-03-02T00:13:18.410Z,74
2023-03-02T00:16:43.566Z,74
2023-03-02T00:20:08.757Z,74
2023-03-02T00:23:33.889Z,74
2023-03-02T00:26:59.058Z,74
2023-03-02T00:30:24.252Z,74
2023-03-02T00:33:49.378Z,74
2023-03-02T00:37:14.536Z,72
2023-03-02T00:40:39.722Z,74
2023-03-02T00:44:04.896Z,74
2023-03-02T00:47:30.068Z,74
2023-03-02T00:50:55.202Z,74
2023-03-02T00:54:20.367Z,74
2023-03-02T00:57:45.531Z,73
2023-03-02T01:01:10.710Z,73
2023-03-02T01:04:35.901Z,73
2023-03-02T01:08:01.066Z,73
2023-03-02T01:11:26.282Z,73
2023-03-02T01:14:51.459Z,73
2023-03-02T01:18:16.618Z,73
2023-03-02T01:21:41.817Z,73
2023-03-02T01:25:06.994Z,74
2023-03-02T01:28:32.136Z,74
2023-03-02T01:31:57.474Z,75
2023-03-02T01:35:22.493Z,75
2023-03-02T01:38:47.679Z,75
2023-03-02T01:42:12.809Z,75
2023-03-02T01:45:38.052Z,76
2023-03-02T01:49:03.200Z,77
2023-03-02T01:52:28.362Z,78
2023-03-02T01:55:53.561Z,78
2023-03-02T01:59:18.695Z,79
2023-03-02T02:02:43.849Z,78
2023-03-02T02:06:09.026Z,78
2023-03-02T02:09:34.189Z,78
2023-03-02T02:12:59.370Z,78
2023-03-02T02:16:24.541Z,78
2023-03-02T02:19:49.667Z,78
2023-03-02T02:23:14.873Z,77
2023-03-02T02:26:40.056Z,77
2023-03-02T02:30:05.259Z,77
2023-03-02T02:33:30.386Z,76
2023-03-02T02:36:55.552Z,76
2023-03-02T02:40:20.711Z,75
2023-03-02T02:43:45.893Z,75
2023-03-02T02:47:11.099Z,75
2023-03-02T02:50:36.225Z,76
2023-03-02T02:54:01.388Z,76
2023-03-02T02:57:26.540Z,76
2023-03-02T03:00:52.423Z,77
2023-03-02T03:04:17.648Z,77
2023-03-02T03:07:42.694Z,76
2023-03-02T03:11:07.862Z,76
2023-03-02T03:14:33.014Z,75
2023-03-02T03:17:58.192Z,75
2023-03-02T03:21:23.354Z,75
2023-03-02T03:24:48.526Z,75
2023-03-02T03:28:13.681Z,75
2023-03-02T03:31:38.838Z,76
2023-03-02T03:35:04.000Z,76
2023-03-02T03:38:29.212Z,77
2023-03-02T03:41:54.329Z,77
2023-03-02T03:45:19.484Z,76
2023-03-02T03:48:44.675Z,76
2023-03-02T03:52:09.840Z,75
2023-03-02T03:55:35.072Z,75
2023-03-02T03:59:00.140Z,74
2023-03-02T04:02:25.324Z,74
2023-03-02T04:05:50.482Z,75
2023-03-02T04:09:15.657Z,75
2023-03-02T04:12:40.878Z,75
2023-03-02T04:16:05.984Z,76
2023-03-02T04:19:31.104Z,76
2023-03-02T04:22:56.265Z,77
2023-03-02T04:26:21.458Z,77
2023-03-02T04:29:46.658Z,76
2023-03-02T04:33:11.837Z,76
2023-03-02T04:36:37.431Z,76
2023-03-02T04:40:02.299Z,76
2023-03-02T04:43:27.464Z,76
2023-03-02T04:46:52.824Z,75
2023-03-02T04:50:17.860Z,75
2023-03-02T04:53:43.047Z,75
2023-03-02T04:57:08.185Z,75
2023-03-02T05:00:33.640Z,75
2023-03-02T05:03:58.541Z,75
2023-03-02T05:07:23.703Z,75
2023-03-02T05:10:48.857Z,75
2023-03-02T05:14:14.056Z,75
2023-03-02T05:17:39.214Z,75
2023-03-02T05:21:04.417Z,75
2023-03-02T05:24:29.585Z,75
2023-03-02T05:27:54.759Z,74
2023-03-02T05:31:19.977Z,74
2023-03-02T05:34:45.054Z,75
2023-03-02T05:38:10.259Z,76
2023-03-02T05:41:35.435Z,76
2023-03-02T05:45:00.659Z,75
2023-03-02T05:48:25.770Z,75
2023-03-02T05:51:50.950Z,75
2023-03-02T05:55:16.130Z,75
2023-03-02T05:58:41.290Z,75
2023-03-02T06:02:06.507Z,76
2023-03-02T06:05:31.661Z,76
2023-03-02T06:08:56.859Z,76
2023-03-02T06:12:22.103Z,76
2023-03-02T06:15:47.275Z,76
2023-03-02T06:19:12.547Z,75
2023-03-02T06:22:37.751Z,75
2023-03-02T06:26:02.961Z,75
2023-03-02T06:29:28.201Z,75
2023-03-02T06:32:53.384Z,74
2023-03-02T06:36:18.619Z,74
2023-03-02T06:39:43.688Z,74
2023-03-02T06:43:08.872Z,74
2023-03-02T06:46:34.407Z,74
2023-03-02T06:50:00.003Z,75
2023-03-02T06:53:25.168Z,75
2023-03-02T06:56:50.448Z,75
2023-03-02T07:00:15.630Z,75
2023-03-02T07:03:41.005Z,74
2023-03-02T07:07:05.991Z,74
2023-03-02T07:10:31.217Z,74
2023-03-02T07:13:56.417Z,73
2023-03-02T07:17:21.638Z,74
2023-03-02T07:20:47.579Z,73
2023-03-02T07:24:12.425Z,73
2023-03-02T07:27:37.595Z,73
2023-03-02T07:31:02.869Z,73
2023-03-02T07:34:27.952Z,73
2023-03-02T07:37:53.152Z,72
2023-03-02T07:41:18.308Z,72
2023-03-02T07:44:43.462Z,71
2023-03-02T07:48:08.631Z,72
2023-03-02T07:51:34.017Z,72
2023-03-02T07:54:59.109Z,72
2023-03-02T07:58:24.256Z,71
2023-03-02T08:01:49.454Z,72
2023-03-02T08:05:14.629Z,71
2023-03-02T08:08:39.844Z,71
2023-03-02T08:12:05.075Z,70
2023-03-02T08:15:30.209Z,71
2023-03-02T08:18:56.919Z,70
2023-03-02T08:22:20.563Z,70
2023-03-02T08:25:45.736Z,70
2023-03-02T08:29:10.991Z,69
2023-03-02T08:32:36.836Z,70
2023-03-02T08:36:01.972Z,70
2023-03-02T08:39:28.994Z,70
2023-03-02T08:42:52.684Z,70
2023-03-02T08:46:18.013Z,70
2023-03-02T08:49:43.037Z,70
2023-03-02T08:53:08.272Z,69
2023-03-02T08:56:33.953Z,70
2023-03-02T08:59:58.633Z,70
2023-03-02T09:03:23.841Z,71
2023-03-02T09:06:48.981Z,70
2023-03-02T09:10:14.194Z,70
2023-03-02T09:13:39.398Z,73
2023-03-02T09:17:04.578Z,69
2023-03-02T09:20:29.768Z,70
2023-03-02T09:23:54.956Z,70
2023-03-02T09:27:20.216Z,70
2023-03-02T09:30:45.382Z,71
2023-03-02T09:34:10.558Z,72
2023-03-02T09:37:35.749Z,71
2023-03-02T09:41:00.878Z,70
2023-03-02T09:44:26.048Z,68
2023-03-02T09:47:51.263Z,69
2023-03-02T09:51:16.460Z,68
2023-03-02T09:54:41.778Z,67
2023-03-02T09:58:06.879Z,68
2023-03-02T10:01:32.101Z,68
2023-03-02T10:04:57.318Z,68
2023-03-02T10:08:22.454Z,68
2023-03-02T10:11:47.720Z,69
2023-03-02T10:15:12.873Z,67
2023-03-02T10:18:38.092Z,69
2023-03-02T10:22:03.264Z,68
2023-03-02T10:25:28.498Z,69
2023-03-02T10:28:53.713Z,67
2023-03-02T10:32:18.898Z,67
2023-03-02T10:35:44.049Z,66
2023-03-02T10:39:09.198Z,68
2023-03-02T10:42:34.370Z,66
2023-03-02T10:45:59.645Z,67
2023-03-02T10:49:24.702Z,68
2023-03-02T10:52:59.431Z,66
2023-03-02T10:56:15.094Z,67
2023-03-02T10:59:40.269Z,68
2023-03-02T11:03:05.449Z,66
2023-03-02T11:06:30.943Z,64
2023-03-02T11:09:55.830Z,64
2023-03-02T11:13:21.050Z,66
2023-03-02T11:16:46.239Z,63
2023-03-02T11:20:11.521Z,63
2023-03-02T11:23:36.668Z,66
2023-03-02T11:27:01.850Z,66
2023-03-02T11:30:27.080Z,66
2023-03-02T11:33:52.261Z,65
2023-03-02T11:37:17.399Z,66
2023-03-02T11:40:43.032Z,64
2023-03-02T11:44:07.724Z,64
2023-03-02T11:47:32.888Z,65
2023-03-02T11:50:58.084Z,64
2023-03-02T11:54:23.238Z,64
2023-03-02T11:57:48.399Z,64
2023-03-02T12:01:13.549Z,64
2023-03-02T12:04:38.722Z,64
2023-03-02T12:08:03.877Z,63
2023-03-02T12:11:29.149Z,63
2023-03-02T12:14:54.225Z,63
2023-03-02T12:18:19.407Z,62
2023-03-02T12:21:44.567Z,64
2023-03-02T12:25:09.736Z,63
2023-03-02T12:28:35.038Z,62
2023-03-02T12:32:00.224Z,62
2023-03-02T12:35:25.315Z,60
2023-03-02T12:38:50.402Z,62
2023-03-02T12:42:15.599Z,61
2023-03-02T12:45:40.875Z,60
2023-03-02T12:49:06.737Z,61
2023-03-02T12:52:31.243Z,63
2023-03-02T12:55:56.330Z,62
2023-03-02T12:59:21.536Z,61
2023-03-02T13:02:47.638Z,62
2023-03-02T13:06:12.991Z,63
2023-03-02T13:09:40.086Z,62
2023-03-02T13:13:03.350Z,63
2023-03-02T13:16:28.511Z,62
2023-03-02T13:19:53.629Z,62
2023-03-02T13:23:18.795Z,63
2023-03-02T13:26:43.979Z,62
2023-03-02T13:30:09.131Z,63
2023-03-02T13:33:34.311Z,61
2023-03-02T13:36:59.813Z,61
2023-03-02T13:40:25.330Z,61
2023-03-02T13:43:50.518Z,60
2023-03-02T13:47:15.696Z,61
2023-03-02T13:50:40.923Z,59
2023-03-02T13:54:07.439Z,61
2023-03-02T13:57:32.482Z,62
2023-03-02T14:00:57.838Z,61
2023-03-02T14:04:22.988Z,61
2023-03-02T14:07:48.207Z,59
2023-03-02T14:11:13.608Z,58
2023-03-02T14:14:38.940Z,57
2023-03-02T14:18:04.185Z,60
2023-03-02T14:21:29.579Z,58
2023-03-02T14:24:54.792Z,61
2023-03-02T14:28:20.261Z,57
2023-03-02T15:04:50.157Z,58
2023-03-02T15:08:15.334Z,57
2023-03-02T15:11:40.677Z,58
2023-03-02T15:15:05.986Z,57
2023-03-02T15:18:31.343Z,57
2023-03-02T15:21:56.705Z,58
2023-03-02T15:25:22.010Z,57
2023-03-02T15:28:47.363Z,58
2023-03-02T15:32:12.724Z,57
2023-03-02T15:35:38.080Z,58
2023-03-02T15:39:03.404Z,58
2023-03-02T15:42:28.730Z,58
2023-03-02T15:45:54.043Z,59
2023-03-02T15:49:19.361Z,59
2023-03-02T15:52:44.640Z,59
2023-03-02T15:56:09.984Z,60
2023-03-02T15:59:35.295Z,60
2023-03-02T16:03:00.645Z,60
2023-03-02T16:06:25.873Z,59
2023-03-02T16:09:51.171Z,61
2023-03-02T16:13:16.459Z,60
2023-03-02T16:16:41.798Z,60
2023-03-02T16:20:07.023Z,61
2023-03-02T16:23:32.368Z,61
2023-03-02T16:26:57.761Z,62
2023-03-02T16:30:23.641Z,62
2023-03-02T16:33:48.381Z,63
2023-03-02T16:37:13.708Z,64
2023-03-02T16:40:38.971Z,63
2023-03-02T16:44:04.229Z,64
2023-03-02T16:47:29.552Z,64
2023-03-02T16:50:54.831Z,64
2023-03-02T16:54:20.099Z,65
2023-03-02T16:57:45.472Z,65
2023-03-02T17:01:10.871Z,65
2023-03-02T17:04:36.335Z,64
2023-03-02T17:08:01.637Z,65
2023-03-02T17:11:26.950Z,65
2023-03-02T17:14:52.265Z,65
2023-03-02T17:18:17.552Z,65
2023-03-02T17:21:42.892Z,65
2023-03-02T17:25:08.153Z,65
2023-03-02T17:28:33.422Z,65
2023-03-02T17:31:59.114Z,65
2023-03-02T17:35:24.282Z,65
2023-03-02T17:38:49.654Z,65
2023-03-02T17:42:15.626Z,65
2023-03-02T17:45:40.966Z,64
2023-03-02T17:49:06.285Z,64
2023-03-02T17:52:31.573Z,64
2023-03-02T17:55:56.921Z,64
2023-03-02T17:59:22.306Z,64
2023-03-02T18:02:47.584Z,63
2023-03-02T18:06:12.886Z,63
2023-03-02T18:09:38.190Z,63
2023-03-02T18:13:03.609Z,62
2023-03-02T18:16:28.923Z,63
2023-03-02T18:19:54.220Z,63
2023-03-02T18:23:19.499Z,63
2023-03-02T18:26:45.040Z,62
2023-03-02T18:30:11.936Z,63
2023-03-02T18:33:37.223Z,62
2023-03-02T18:37:03.993Z,62
2023-03-02T18:40:29.261Z,63
2023-03-02T18:43:58.468Z,63
2023-03-02T18:47:23.774Z,63
2023-03-02T18:50:49.114Z,63
2023-03-02T18:54:14.451Z,63
2023-03-02T18:57:39.807Z,63
2023-03-02T19:01:05.111Z,63
2023-03-02T19:04:30.374Z,63
2023-03-02T19:07:55.638Z,63
2023-03-02T19:11:20.918Z,64
2023-03-02T19:14:46.167Z,64
2023-03-02T19:18:11.505Z,64
2023-03-02T19:21:36.829Z,64
2023-03-02T19:25:02.100Z,65
2023-03-02T19:28:27.367Z,65
2023-03-02T19:31:52.726Z,65
2023-03-02T19:35:18.145Z,65
2023-03-02T19:38:43.319Z,66
2023-03-02T19:42:08.601Z,66
2023-03-02T19:45:33.960Z,65
2023-03-02T19:48:59.147Z,66
2023-03-02T19:52:24.437Z,66
2023-03-02T19:55:49.727Z,66
2023-03-02T19:59:14.978Z,66
2023-03-02T20:02:40.276Z,66
2023-03-02T20:06:05.570Z,67
2023-03-02T20:09:30.856Z,67
2023-03-02T20:12:56.253Z,67
2023-03-02T20:16:21.460Z,66
2023-03-02T20:19:46.727Z,66
2023-03-02T20:23:11.996Z,66
2023-03-02T20:26:37.328Z,66
2023-03-02T20:30:02.605Z,67
2023-03-02T20:33:27.848Z,67
2023-03-02T20:36:53.203Z,67
2023-03-02T20:40:18.526Z,68
2023-03-02T20:43:43.830Z,68
2023-03-02T20:47:09.166Z,69
2023-03-02T20:50:34.394Z,69
2023-03-02T20:53:59.603Z,70
2023-03-02T20:57:24.846Z,71
2023-03-02T21:00:50.066Z,72
2023-03-02T21:04:15.310Z,74
2023-03-02T21:07:40.497Z,75
2023-03-02T21:11:05.726Z,76
2023-03-02T21:14:30.908Z,77
2023-03-02T21:17:56.150Z,77
2023-03-02T21:21:27.201Z,79
2023-03-02T21:24:46.615Z,80
2023-03-02T21:28:11.841Z,82
2023-03-02T21:31:37.188Z,82
2023-03-02T21:35:02.276Z,83
2023-03-02T21:38:27.511Z,84
2023-03-02T21:41:52.742Z,85
2023-03-02T21:45:17.953Z,85
2023-03-02T21:48:43.190Z,85
2023-03-02T21:52:08.415Z,85
2023-03-02T21:55:33.631Z,85
2023-03-02T21:58:58.832Z,85
2023-03-02T22:02:24.041Z,85
2023-03-02T22:05:49.251Z,85
2023-03-02T22:09:14.483Z,85
2023-03-02T22:12:39.712Z,86
2023-03-02T22:16:04.989Z,86
2023-03-02T22:19:30.168Z,87
2023-03-02T22:22:55.364Z,87
2023-03-02T22:26:20.564Z,86
2023-03-02T22:29:45.896Z,87
2023-03-02T22:33:11.023Z,87
2023-03-02T22:36:36.225Z,87
2023-03-02T22:40:01.442Z,87
2023-03-02T22:43:26.660Z,87
2023-03-02T22:46:51.895Z,87
2023-03-02T22:50:17.066Z,86
2023-03-02T22:53:42.293Z,87
2023-03-02T22:57:07.535Z,87
2023-03-02T23:00:32.754Z,88
2023-03-02T23:03:57.959Z,88
2023-03-02T23:07:23.159Z,88
2023-03-02T23:10:48.394Z,87
2023-03-02T23:14:13.630Z,87
2023-03-02T23:17:38.853Z,87
2023-03-02T23:21:04.177Z,87
2023-03-02T23:24:29.264Z,87
2023-03-02T23:27:54.472Z,87
2023-03-02T23:31:19.704Z,88
2023-03-02T23:34:44.887Z,87
2023-03-02T23:38:10.140Z,87
2023-03-02T23:41:35.382Z,87
2023-03-02T23:45:00.520Z,88
2023-03-02T23:48:25.725Z,88
2023-03-02T23:51:50.944Z,89
2023-03-02T23:55:16.170Z,89
2023-03-02T23:58:41.361Z,89
